createdAt,value
2022-09-30T00:00:29.852Z,31.3
2022-09-30T00:06:09.064Z,31.3
2022-09-30T00:11:45.970Z,31.3
2022-09-30T00:17:22.461Z,31.3
2022-09-30T00:22:14.053Z,31.3
2022-09-30T00:27:35.613Z,31.3
2022-09-30T00:33:13.066Z,31.3
2022-09-30T00:38:49.466Z,31.3
2022-09-30T00:44:26.896Z,31.2
2022-09-30T00:49:53.676Z,31.3
2022-09-30T00:55:30.809Z,31.2
2022-09-30T01:01:07.614Z,31.3
2022-09-30T01:06:43.747Z,31.2
2022-09-30T01:12:25.920Z,31.2
2022-09-30T01:18:02.992Z,31.2
2022-09-30T01:23:30.552Z,31.2
2022-09-30T01:28:52.207Z,31.2
2022-09-30T01:34:13.760Z,31.2
2022-09-30T01:39:34.998Z,31.1
2022-09-30T01:45:12.813Z,31.1
2022-09-30T01:50:49.092Z,31.1
2022-09-30T01:56:25.677Z,31.1
2022-09-30T02:02:03.591Z,31.1
2022-09-30T02:07:39.992Z,31.1
2022-09-30T02:13:17.032Z,31.1
2022-09-30T02:18:55.121Z,31.1
2022-09-30T02:24:32.484Z,31.1
2022-09-30T02:30:08.723Z,31.1
2022-09-30T02:35:31.537Z,31.1
2022-09-30T02:40:37.954Z,31.1
2022-09-30T02:45:58.843Z,31.1
2022-09-30T02:51:21.599Z,31
2022-09-30T02:56:58.132Z,31
2022-09-30T03:02:41.736Z,31
2022-09-30T03:08:19.535Z,31
2022-09-30T03:13:41.828Z,31
2022-09-30T03:19:06.428Z,31
2022-09-30T03:24:28.504Z,31
2022-09-30T03:29:50.433Z,30.9
2022-09-30T03:35:29.051Z,30.9
2022-09-30T03:41:06.175Z,30.9
2022-09-30T03:46:42.498Z,30.9
2022-09-30T03:52:18.724Z,30.9
2022-09-30T03:57:56.761Z,30.9
2022-09-30T04:03:33.934Z,30.9
2022-09-30T04:09:10.554Z,30.9
2022-09-30T04:14:48.844Z,30.9
2022-09-30T04:20:29.619Z,30.9
2022-09-30T04:25:50.868Z,30.9
2022-09-30T04:31:17.019Z,30.9
2022-09-30T04:36:54.894Z,30.7
2022-09-30T04:42:32.497Z,30.3
2022-09-30T04:47:55.684Z,30
2022-09-30T04:53:21.764Z,29.8
2022-09-30T04:58:44.317Z,29.7
2022-09-30T05:04:23.149Z,29.6
2022-09-30T05:10:05.452Z,29.6
2022-09-30T05:15:42.203Z,29.5
2022-09-30T05:21:24.854Z,29.5
2022-09-30T05:27:02.678Z,29.4
2022-09-30T05:32:40.459Z,29.4
2022-09-30T05:38:18.466Z,29.4
2022-09-30T05:43:56.082Z,29.4
2022-09-30T05:49:33.439Z,29.4
2022-09-30T05:55:16.809Z,29.1
2022-09-30T06:01:07.009Z,28.3
2022-09-30T06:06:47.081Z,27.7
2022-09-30T06:12:31.607Z,27.3
2022-09-30T06:18:09.810Z,27.1
2022-09-30T06:23:47.564Z,26.8
2022-09-30T06:29:26.837Z,26.5
2022-09-30T06:35:06.317Z,26.4
2022-09-30T06:40:43.980Z,26.2
2022-09-30T06:47:21.018Z,26
2022-09-30T06:53:53.457Z,25.8
2022-09-30T06:59:31.423Z,25.8
2022-09-30T07:05:12.857Z,25.7
2022-09-30T07:10:50.251Z,25.6
2022-09-30T07:16:27.580Z,25.6
2022-09-30T07:22:05.933Z,25.6
2022-09-30T07:27:43.549Z,25.6
2022-09-30T07:34:18.904Z,25.6
2022-09-30T07:39:58.150Z,26.3
2022-09-30T07:45:36.797Z,34.8
2022-09-30T07:51:17.649Z,31.6
2022-09-30T07:57:27.664Z,38.8
2022-09-30T08:03:32.579Z,42.4
2022-09-30T08:09:14.489Z,44.1
2022-09-30T08:14:55.107Z,45.8
2022-09-30T08:20:38.562Z,47.4
2022-09-30T08:26:17.096Z,48.8
2022-09-30T08:32:25.771Z,50.3
2022-09-30T08:38:05.698Z,51.6
2022-09-30T08:44:03.933Z,52.8
2022-09-30T08:49:52.668Z,54
2022-09-30T08:55:45.791Z,55.1
2022-09-30T09:01:27.928Z,56
2022-09-30T09:07:10.847Z,56.4
2022-09-30T09:12:49.641Z,56.4
2022-09-30T09:18:36.255Z,57.4
2022-09-30T09:24:19.705Z,58.3
2022-09-30T09:29:43.483Z,59
2022-09-30T09:35:24.332Z,59.8
2022-09-30T09:40:52.412Z,60.5
2022-09-30T09:46:34.048Z,61.3
2022-09-30T09:51:56.996Z,61.8
2022-09-30T09:57:38.234Z,62.5
2022-09-30T10:03:22.257Z,63.3
2022-09-30T10:08:59.512Z,64.1
2022-09-30T10:14:21.858Z,64.5
2022-09-30T10:19:44.365Z,64.9
2022-09-30T10:25:22.763Z,65.4
2022-09-30T10:31:04.112Z,65.9
2022-09-30T10:36:47.441Z,66.3
2022-09-30T10:42:30.741Z,66.9
2022-09-30T10:48:26.064Z,67.2
2022-09-30T10:53:48.594Z,67.6
2022-09-30T10:59:17.216Z,68.1
2022-09-30T11:04:47.224Z,68.4
2022-09-30T11:10:09.772Z,68.8
2022-09-30T11:15:32.155Z,69.3
2022-09-30T11:21:10.450Z,69.6
2022-09-30T11:26:50.148Z,69.9
2022-09-30T11:31:59.997Z,67.9
2022-09-30T11:37:37.861Z,57.8
2022-09-30T11:43:15.548Z,57.2
2022-09-30T11:48:52.689Z,59.1
2022-09-30T11:54:15.092Z,59.2
2022-09-30T12:00:18.183Z,59.8
2022-09-30T12:05:40.744Z,60.6
2022-09-30T12:11:18.457Z,60.4
2022-09-30T12:16:32.218Z,60.1
2022-09-30T12:22:16.039Z,59.6
2022-09-30T12:27:38.707Z,59.5
2022-09-30T12:33:19.020Z,60.2
2022-09-30T12:38:56.721Z,60.9
2022-09-30T12:44:34.135Z,61.7
2022-09-30T12:50:12.860Z,62.1
2022-09-30T12:55:50.675Z,62.5
2022-09-30T13:01:28.429Z,59.6
2022-09-30T13:07:09.233Z,55.6
2022-09-30T13:12:46.970Z,56.1
2022-09-30T13:18:10.555Z,57
2022-09-30T13:29:15.964Z,58.3
2022-09-30T13:34:54.495Z,58.4
2022-09-30T13:40:50.019Z,58.6
2022-09-30T13:46:36.866Z,58.6
2022-09-30T13:57:06.044Z,58.4
2022-09-30T14:02:44.257Z,57.9
2022-09-30T14:08:22.344Z,57.4
2022-09-30T14:14:05.875Z,57
2022-09-30T14:19:45.544Z,56.5
2022-09-30T14:25:27.117Z,56.1
2022-09-30T14:31:07.166Z,55.6
2022-09-30T14:38:14.841Z,55
2022-09-30T14:43:58.378Z,54.3
2022-09-30T14:49:36.891Z,53.6
2022-09-30T14:55:20.606Z,53.1
2022-09-30T15:00:58.654Z,52.5
2022-09-30T15:06:40.268Z,51.9
2022-09-30T15:12:17.324Z,51.3
2022-09-30T15:17:56.059Z,47.2
2022-09-30T15:23:33.479Z,44.9
2022-09-30T15:29:11.756Z,47.7
2022-09-30T15:34:54.789Z,45
2022-09-30T15:40:36.429Z,43.3
2022-09-30T15:46:14.965Z,42.1
2022-09-30T15:51:53.519Z,41.3
2022-09-30T15:57:35.839Z,40.5
2022-09-30T16:03:13.621Z,39.9
2022-09-30T16:08:52.116Z,39.4
2022-09-30T16:14:32.229Z,38.9
2022-09-30T16:20:13.724Z,38.4
2022-09-30T16:25:51.120Z,38.1
2022-09-30T16:31:30.733Z,37.9
2022-09-30T16:37:08.542Z,37.3
2022-09-30T16:42:46.412Z,36.6
2022-09-30T16:48:29.559Z,36.3
2022-09-30T16:53:55.631Z,35.8
2022-09-30T16:59:33.864Z,35.6
2022-09-30T17:04:55.599Z,35.4
2022-09-30T17:10:33.603Z,35.3
2022-09-30T17:15:55.817Z,35.1
2022-09-30T17:21:33.352Z,35
2022-09-30T17:26:55.498Z,34.9
2022-09-30T17:32:55.886Z,34.8
2022-09-30T17:38:36.056Z,34.7
2022-09-30T17:43:45.740Z,34.6
2022-09-30T17:49:24.328Z,34.5
2022-09-30T17:55:06.283Z,34.4
2022-09-30T18:00:28.290Z,34.4
2022-09-30T18:06:08.155Z,34.3
2022-09-30T18:11:46.610Z,34.3
2022-09-30T18:17:24.870Z,34.2
2022-09-30T18:23:03.350Z,34.1
2022-09-30T18:28:13.668Z,34.1
2022-09-30T18:33:37.343Z,34
2022-09-30T18:39:15.533Z,33.9
2022-09-30T18:44:23.523Z,32.4
2022-09-30T18:50:01.697Z,31.5
2022-09-30T18:55:39.795Z,31.1
2022-09-30T19:01:19.666Z,30.8
2022-09-30T19:06:59.160Z,30.6
2022-09-30T19:12:37.012Z,30.5
2022-09-30T19:18:17.824Z,30.4
2022-09-30T19:23:55.205Z,30.4
2022-09-30T19:29:33.173Z,30.3
2022-09-30T19:35:54.178Z,30.3
2022-09-30T19:42:53.679Z,30.3
2022-09-30T19:48:39.329Z,30.3
2022-09-30T19:55:16.014Z,30.2
2022-09-30T20:01:11.262Z,30.2
2022-09-30T20:06:35.122Z,30.2
2022-09-30T20:11:57.120Z,30.2
2022-09-30T20:17:25.979Z,30.2
2022-09-30T20:23:04.337Z,30.2
2022-09-30T20:28:42.512Z,30.2
2022-09-30T20:34:05.750Z,30.2
2022-09-30T20:39:44.626Z,30.1
2022-09-30T20:45:22.360Z,30.1
2022-09-30T20:51:03.099Z,30.1
2022-09-30T20:57:05.616Z,30.1
2022-09-30T21:02:44.269Z,30.1
2022-09-30T21:08:21.691Z,30.1
2022-09-30T21:13:45.307Z,30.1
2022-09-30T21:19:23.083Z,30.1
2022-09-30T21:24:45.136Z,30.1
2022-09-30T21:30:12.327Z,30.1
2022-09-30T21:35:35.564Z,30.1
2022-09-30T21:41:13.574Z,30.1
2022-09-30T21:46:36.442Z,30.1
2022-09-30T21:52:13.371Z,30.1
2022-09-30T21:57:55.430Z,30.1
2022-09-30T22:03:34.182Z,30.1
2022-09-30T22:08:55.903Z,30.1
2022-09-30T22:14:33.761Z,30.1
2022-09-30T22:20:11.932Z,30.1
2022-09-30T22:25:49.171Z,30.1
2022-09-30T22:31:26.596Z,30.1
2022-09-30T22:36:49.401Z,29.9
2022-09-30T22:42:29.542Z,29.4
2022-09-30T22:47:51.351Z,29.3
2022-09-30T22:53:14.036Z,29.2
2022-09-30T22:58:35.520Z,29.1
2022-09-30T23:03:56.511Z,29.1
2022-09-30T23:09:34.021Z,29.1
2022-09-30T23:15:11.603Z,29.1
2022-09-30T23:20:48.892Z,29.1
2022-09-30T23:26:26.555Z,29.1
2022-09-30T23:32:04.064Z,29.1
2022-09-30T23:37:10.419Z,29.1
2022-09-30T23:42:48.779Z,29.1
2022-09-30T23:48:26.177Z,29.1
2022-09-30T23:54:07.008Z,29.1
2022-09-30T23:59:44.517Z,29.1
